createdAt,value
2019-05-14T00:02:14.094Z,78.59
2019-05-14T00:04:47.075Z,73.26
2019-05-14T00:07:17.990Z,74.81
2019-05-14T00:09:52.536Z,78.19
2019-05-14T00:12:35.484Z,77.13
2019-05-14T00:15:07.371Z,71.38
2019-05-14T00:17:37.296Z,72.80
2019-05-14T00:20:10.231Z,72.07
2019-05-14T00:22:42.864Z,73.57
2019-05-14T00:25:13.059Z,76.64
2019-05-14T00:27:43.130Z,75.13
2019-05-14T00:30:16.639Z,78.20
2019-05-14T00:32:52.749Z,78.25
2019-05-14T00:35:23.157Z,77.94
2019-05-14T00:37:53.157Z,77.65
2019-05-14T00:40:38.131Z,78.23
2019-05-14T00:43:08.174Z,76.98
2019-05-14T00:45:44.240Z,75.90
2019-05-14T00:48:14.363Z,74.86
2019-05-14T00:50:51.694Z,77.57
2019-05-14T00:53:28.577Z,75.85
2019-05-14T00:55:56.482Z,73.82
2019-05-14T00:58:31.101Z,70.19
2019-05-14T01:01:01.724Z,76.14
2019-05-14T01:03:32.576Z,79.29
2019-05-14T01:06:03.236Z,78.58
2019-05-14T01:08:37.237Z,78.77
2019-05-14T01:11:07.464Z,79.90
2019-05-14T01:13:41.898Z,80.43
2019-05-14T01:16:12.217Z,77.83
2019-05-14T01:18:43.290Z,80.45
2019-05-14T01:21:14.897Z,82.11
2019-05-14T01:23:44.812Z,84.73
2019-05-14T01:26:21.772Z,81.86
2019-05-14T01:28:51.937Z,85.70
2019-05-14T01:31:22.927Z,85.66
2019-05-14T01:33:54.425Z,87.77
2019-05-14T01:36:24.503Z,85.03
2019-05-14T01:38:55.695Z,87.08
2019-05-14T01:41:25.978Z,87.52
2019-05-14T01:43:56.073Z,84.51
2019-05-14T01:46:26.028Z,86.14
2019-05-14T01:48:56.171Z,88.27
2019-05-14T01:51:26.385Z,84.68
2019-05-14T01:53:56.383Z,89.28
2019-05-14T01:56:26.494Z,89.41
2019-05-14T01:59:01.693Z,90.83
2019-05-14T02:01:31.761Z,87.08
2019-05-14T02:04:02.426Z,89.12
2019-05-14T02:06:32.525Z,92.52
2019-05-14T02:09:05.686Z,91.32
2019-05-14T02:11:35.738Z,90.25
2019-05-14T02:14:06.336Z,88.23
2019-05-14T02:16:36.485Z,83.89
2019-05-14T02:19:06.587Z,84.94
2019-05-14T02:21:37.986Z,85.79
2019-05-14T02:24:08.040Z,86.99
2019-05-14T02:26:38.003Z,85.78
2019-05-14T02:29:08.023Z,90.32
2019-05-14T02:31:39.558Z,88.13
2019-05-14T02:34:10.347Z,90.89
2019-05-14T02:36:41.023Z,86.30
2019-05-14T02:39:13.278Z,90.85
2019-05-14T02:41:43.412Z,87.63
2019-05-14T02:44:13.387Z,87.89
2019-05-14T02:46:45.306Z,83.87
2019-05-14T02:49:19.247Z,88.59
2019-05-14T02:51:50.309Z,86.85
2019-05-14T02:54:20.602Z,87.77
2019-05-14T02:56:51.168Z,88.59
2019-05-14T02:59:21.351Z,87.68
2019-05-14T03:01:51.455Z,90.89
2019-05-14T03:04:21.451Z,92.67
2019-05-14T03:06:51.517Z,92.72
2019-05-14T03:09:21.602Z,90.89
2019-05-14T03:11:51.845Z,92.21
2019-05-14T03:14:22.010Z,95.29
2019-05-14T03:16:52.184Z,94.87
2019-05-14T03:19:22.216Z,93.05
2019-05-14T03:21:52.308Z,96.04
2019-05-14T03:24:22.599Z,94.14
2019-05-14T03:26:52.945Z,94.48
2019-05-14T03:29:26.070Z,90.58
2019-05-14T03:31:55.307Z,93.17
2019-05-14T03:34:25.374Z,93.02
2019-05-14T03:36:55.367Z,90.08
2019-05-14T03:39:25.497Z,91.22
2019-05-14T03:41:58.726Z,91.28
2019-05-14T03:44:29.164Z,91.73
2019-05-14T03:47:04.694Z,92.50
2019-05-14T03:49:31.559Z,97.10
2019-05-14T03:52:01.769Z,94.65
2019-05-14T03:54:31.954Z,97.54
2019-05-14T03:57:02.123Z,97.62
2019-05-14T03:59:32.242Z,94.04
2019-05-14T04:02:02.739Z,91.65
2019-05-14T04:04:33.149Z,90.45
2019-05-14T04:07:09.400Z,92.96
2019-05-14T04:09:41.304Z,91.71
2019-05-14T04:12:12.933Z,91.85
2019-05-14T04:14:46.490Z,92.42
2019-05-14T04:17:32.130Z,93.10
2019-05-14T04:19:55.077Z,94.86
2019-05-14T04:22:25.593Z,92.66
2019-05-14T04:24:59.731Z,92.06
2019-05-14T04:27:32.793Z,92.80
2019-05-14T04:30:03.857Z,89.08
2019-05-14T04:32:34.794Z,86.96
2019-05-14T04:35:05.201Z,85.17
2019-05-14T04:37:35.388Z,83.45
2019-05-14T04:40:09.662Z,79.79
2019-05-14T04:42:40.407Z,72.42
2019-05-14T04:45:11.552Z,71.90
2019-05-14T04:47:42.547Z,66.22
2019-05-14T04:50:12.967Z,66.19
2019-05-14T04:52:43.036Z,60.76
2019-05-14T04:55:13.691Z,60.44
2019-05-14T04:57:43.903Z,58.35
2019-05-14T05:00:14.106Z,59.91
2019-05-14T05:02:44.705Z,55.64
2019-05-14T05:05:15.747Z,55.10
2019-05-14T05:07:48.961Z,53.57
2019-05-14T05:10:19.266Z,51.08
2019-05-14T05:12:49.568Z,49.32
2019-05-14T05:15:19.981Z,52.07
2019-05-14T05:17:53.030Z,49.77
2019-05-14T05:20:22.327Z,45.85
2019-05-14T05:22:52.457Z,45.79
2019-05-14T05:25:23.995Z,46.01
2019-05-14T05:27:56.451Z,46.77
2019-05-14T05:30:26.445Z,45.37
2019-05-14T05:32:56.554Z,43.56
2019-05-14T05:35:29.037Z,42.54
2019-05-14T05:37:58.482Z,42.16
2019-05-14T05:40:29.124Z,43.10
2019-05-14T05:42:59.144Z,40.75
2019-05-14T05:45:29.175Z,40.13
2019-05-14T05:48:01.773Z,43.22
2019-05-14T05:50:31.278Z,45.45
2019-05-14T05:53:04.420Z,43.28
2019-05-14T05:55:39.260Z,41.83
2019-05-14T05:58:12.658Z,40.03
2019-05-14T06:00:49.534Z,38.77
2019-05-14T06:03:20.897Z,38.45
2019-05-14T06:05:52.084Z,39.84
2019-05-14T06:08:23.724Z,36.61
2019-05-14T06:10:58.895Z,35.12
2019-05-14T06:13:28.855Z,34.63
2019-05-14T06:15:59.401Z,38.06
2019-05-14T06:18:34.356Z,38.71
2019-05-14T06:21:03.382Z,37.96
2019-05-14T06:23:33.585Z,37.10
2019-05-14T06:26:04.030Z,35.66
2019-05-14T06:28:34.165Z,37.09
2019-05-14T06:31:04.232Z,35.82
2019-05-14T06:33:34.226Z,35.39
2019-05-14T06:36:04.299Z,33.78
2019-05-14T06:38:34.731Z,32.65
2019-05-14T06:41:08.375Z,33.01
2019-05-14T06:43:39.216Z,32.15
2019-05-14T06:46:10.212Z,31.59
2019-05-14T06:48:40.363Z,32.20
2019-05-14T06:51:10.975Z,31.31
2019-05-14T06:53:41.558Z,30.89
2019-05-14T06:56:12.103Z,29.76
2019-05-14T06:58:42.231Z,28.69
2019-05-14T07:01:12.640Z,29.54
2019-05-14T07:03:42.932Z,28.75
2019-05-14T07:06:13.042Z,28.05
2019-05-14T07:08:44.765Z,28.18
2019-05-14T07:11:18.896Z,28.79
2019-05-14T07:13:49.167Z,27.49
2019-05-14T07:16:20.152Z,28.22
2019-05-14T07:18:53.915Z,28.22
2019-05-14T07:21:23.425Z,27.17
2019-05-14T07:23:53.899Z,27.24
2019-05-14T07:26:24.135Z,26.37
2019-05-14T07:28:54.405Z,25.52
2019-05-14T07:31:24.580Z,25.55
2019-05-14T07:33:54.753Z,25.29
2019-05-14T07:36:25.047Z,26.38
2019-05-14T07:38:56.759Z,25.77
2019-05-14T07:41:28.440Z,25.13
2019-05-14T07:43:58.759Z,25.46
2019-05-14T07:46:29.057Z,25.33
2019-05-14T07:49:07.531Z,25.69
2019-05-14T07:51:31.223Z,24.84
2019-05-14T07:54:01.759Z,24.83
2019-05-14T07:56:31.868Z,24.94
2019-05-14T07:59:02.605Z,23.26
2019-05-14T08:01:33.448Z,24.78
2019-05-14T08:04:03.649Z,24.91
2019-05-14T08:06:34.173Z,26.22
2019-05-14T08:09:08.636Z,24.69
2019-05-14T08:11:39.227Z,25.42
2019-05-14T08:14:09.703Z,25.13
2019-05-14T08:16:43.031Z,26.95
2019-05-14T08:19:24.192Z,26.16
2019-05-14T08:21:45.129Z,26.96
2019-05-14T08:24:18.997Z,28.34
2019-05-14T08:36:28.956Z,26.80
2019-05-14T08:48:12.184Z,22.53
2019-05-14T08:51:02.107Z,21.82
2019-05-14T08:54:39.007Z,23.27
2019-05-14T09:00:24.255Z,26.78
2019-05-14T09:10:04.998Z,32.55
2019-05-14T09:13:44.241Z,29.68
2019-05-14T09:42:07.928Z,27.22
2019-05-14T09:47:50.828Z,20.98
2019-05-14T09:50:55.551Z,21.50
2019-05-14T09:53:43.235Z,24.75
2019-05-14T09:57:08.327Z,28.02
2019-05-14T09:59:54.104Z,28.94
2019-05-14T10:10:35.026Z,26.79
2019-05-14T10:13:05.066Z,29.54
2019-05-14T10:15:35.173Z,30.07
2019-05-14T10:18:05.294Z,29.95
2019-05-14T10:20:41.107Z,22.97
2019-05-14T10:23:09.090Z,21.36
2019-05-14T10:25:42.238Z,25.14
2019-05-14T10:28:10.439Z,29.85
2019-05-14T10:30:41.132Z,31.50
2019-05-14T10:33:14.890Z,32.05
2019-05-14T10:35:43.060Z,32.31
2019-05-14T10:38:13.064Z,32.11
2019-05-14T10:40:43.154Z,30.05
2019-05-14T10:43:13.109Z,27.10
2019-05-14T10:45:43.176Z,26.05
2019-05-14T10:48:13.130Z,28.35
2019-05-14T10:50:56.305Z,31.74
2019-05-14T10:53:15.700Z,30.28
2019-05-14T10:55:45.663Z,30.85
2019-05-14T10:58:19.215Z,30.39
2019-05-14T11:00:49.508Z,30.64
2019-05-14T11:03:19.092Z,30.15
2019-05-14T11:05:49.273Z,30.67
2019-05-14T11:08:19.288Z,30.69
2019-05-14T11:10:49.914Z,30.86
2019-05-14T11:13:20.086Z,31.58
2019-05-14T11:15:50.046Z,30.41
2019-05-14T11:18:20.172Z,25.60
2019-05-14T11:20:51.498Z,23.26
2019-05-14T11:23:21.916Z,21.45
2019-05-14T11:25:51.817Z,21.88
2019-05-14T11:28:21.958Z,26.84
2019-05-14T11:30:52.030Z,24.87
2019-05-14T11:33:22.055Z,23.87
2019-05-14T11:35:51.975Z,25.07
2019-05-14T11:38:29.766Z,26.26
2019-05-14T11:40:53.801Z,26.76
2019-05-14T11:43:23.767Z,24.25
2019-05-14T11:45:53.680Z,21.76
2019-05-14T11:48:23.712Z,22.75
2019-05-14T11:50:53.628Z,22.86
2019-05-14T11:53:23.708Z,19.89
2019-05-14T11:55:53.865Z,22.62
2019-05-14T11:58:23.813Z,26.43
2019-05-14T12:00:53.805Z,28.23
2019-05-14T12:03:23.907Z,29.36
2019-05-14T12:05:53.932Z,29.67
2019-05-14T12:08:23.941Z,26.45
2019-05-14T12:10:54.101Z,22.69
2019-05-14T12:13:29.867Z,18.58
2019-05-14T12:15:59.137Z,17.47
2019-05-14T12:18:29.337Z,17.02
2019-05-14T12:20:59.535Z,15.72
2019-05-14T12:23:29.995Z,18.93
2019-05-14T12:25:59.989Z,21.54
2019-05-14T12:28:30.034Z,23.37
2019-05-14T12:31:00.116Z,23.20
2019-05-14T12:33:31.343Z,24.11
2019-05-14T12:36:02.474Z,26.92
2019-05-14T12:38:32.532Z,28.00
2019-05-14T12:41:02.626Z,27.61
2019-05-14T12:43:32.590Z,28.34
2019-05-14T12:46:02.558Z,26.64
2019-05-14T12:48:32.510Z,22.30
2019-05-14T12:51:02.664Z,21.10
2019-05-14T12:53:32.611Z,20.46
2019-05-14T12:56:02.518Z,19.61
2019-05-14T12:58:32.502Z,19.95
2019-05-14T13:01:02.516Z,21.71
2019-05-14T13:03:32.593Z,22.55
2019-05-14T13:06:02.497Z,21.10
2019-05-14T13:08:32.457Z,19.13
2019-05-14T13:11:02.580Z,17.68
2019-05-14T13:13:32.695Z,18.97
2019-05-14T13:16:04.510Z,21.26
2019-05-14T13:18:34.575Z,24.70
2019-05-14T13:21:04.640Z,26.15
2019-05-14T13:23:34.718Z,27.42
2019-05-14T13:26:04.775Z,26.43
2019-05-14T13:28:34.718Z,24.60
2019-05-14T13:31:04.666Z,22.22
2019-05-14T13:33:34.610Z,24.94
2019-05-14T13:36:04.644Z,24.36
2019-05-14T13:38:34.650Z,21.76
2019-05-14T13:41:04.803Z,21.67
2019-05-14T13:43:34.767Z,23.21
2019-05-14T13:46:04.907Z,25.42
2019-05-14T13:48:38.776Z,26.49
2019-05-14T13:51:08.960Z,27.43
2019-05-14T13:53:39.207Z,23.79
2019-05-14T13:56:09.442Z,22.12
2019-05-14T13:58:39.402Z,20.43
2019-05-14T14:01:10.196Z,18.74
2019-05-14T14:03:48.054Z,19.35
2019-05-14T14:06:12.184Z,18.38
2019-05-14T14:08:42.706Z,17.12
2019-05-14T14:11:13.060Z,19.30
2019-05-14T14:13:42.981Z,20.37
2019-05-14T14:16:15.088Z,20.25
2019-05-14T14:18:44.600Z,23.95
2019-05-14T14:21:14.571Z,23.24
2019-05-14T14:23:45.000Z,23.93
2019-05-14T14:26:15.037Z,23.09
2019-05-14T14:28:44.961Z,21.60
2019-05-14T14:43:26.368Z,28.16
2019-05-14T14:45:59.195Z,26.53
2019-05-14T14:48:30.260Z,23.37
2019-05-14T14:50:59.797Z,22.01
2019-05-14T14:53:46.149Z,20.01
2019-05-14T14:56:02.326Z,22.30
2019-05-14T14:58:32.337Z,27.09
2019-05-14T15:01:02.451Z,28.26
2019-05-14T15:03:32.580Z,27.78
2019-05-14T15:06:02.900Z,25.45
2019-05-14T15:08:32.911Z,23.12
2019-05-14T15:11:02.873Z,22.45
2019-05-14T15:13:32.803Z,21.26
2019-05-14T15:19:35.675Z,21.92
2019-05-14T15:22:08.648Z,25.56
2019-05-14T15:24:37.488Z,28.82
2019-05-14T15:27:14.829Z,30.61
2019-05-14T15:29:42.861Z,31.54
2019-05-14T15:32:11.460Z,31.72
2019-05-14T15:34:41.416Z,31.84
2019-05-14T15:37:11.411Z,32.46
2019-05-14T15:39:41.496Z,32.66
2019-05-14T15:42:13.831Z,32.57
2019-05-14T15:44:51.987Z,32.84
2019-05-14T15:47:15.540Z,29.79
2019-05-14T15:49:45.440Z,27.02
2019-05-14T15:52:15.403Z,28.12
2019-05-14T15:54:47.211Z,30.81
2019-05-14T16:08:43.921Z,34.10
2019-05-14T16:11:13.874Z,30.31
2019-05-14T16:13:43.804Z,28.74
2019-05-14T16:16:15.009Z,27.35
2019-05-14T16:18:44.939Z,26.89
2019-05-14T16:21:15.080Z,28.95
2019-05-14T16:23:45.284Z,30.62
2019-05-14T16:37:49.266Z,30.99
2019-05-14T16:47:39.892Z,35.49
2019-05-14T16:57:29.596Z,33.37
2019-05-14T16:59:59.620Z,33.50
2019-05-14T17:02:29.775Z,31.76
2019-05-14T17:04:59.711Z,31.75
2019-05-14T17:07:29.831Z,31.39
2019-05-14T17:10:00.499Z,31.96
2019-05-14T17:12:46.938Z,32.13
2019-05-14T17:15:02.230Z,32.31
2019-05-14T17:17:32.165Z,32.75
2019-05-14T17:20:02.261Z,34.01
2019-05-14T17:26:17.441Z,35.69
2019-05-14T17:28:48.848Z,36.37
2019-05-14T17:31:19.439Z,36.90
2019-05-14T17:33:49.527Z,36.76
2019-05-14T17:36:19.597Z,36.52
2019-05-14T17:38:49.865Z,35.99
2019-05-14T17:41:20.109Z,35.87
2019-05-14T17:43:50.153Z,36.40
2019-05-14T17:46:20.415Z,37.02
2019-05-14T17:48:51.164Z,37.62
2019-05-14T17:51:21.178Z,37.07
2019-05-14T17:53:51.432Z,36.66
2019-05-14T17:56:22.970Z,37.66
2019-05-14T18:02:25.048Z,38.10
2019-05-14T18:04:57.036Z,38.37
2019-05-14T18:07:28.566Z,39.38
2019-05-14T18:09:59.246Z,39.33
2019-05-14T18:12:30.525Z,39.84
2019-05-14T18:15:00.878Z,39.91
2019-05-14T18:17:31.310Z,40.60
2019-05-14T18:23:53.085Z,40.72
2019-05-14T18:26:23.388Z,41.70
2019-05-14T18:28:53.487Z,41.43
2019-05-14T18:31:23.464Z,41.91
2019-05-14T18:33:53.590Z,42.95
2019-05-14T18:36:23.576Z,43.58
2019-05-14T18:38:53.593Z,43.96
2019-05-14T18:41:23.839Z,44.24
2019-05-14T18:43:53.883Z,45.29
2019-05-14T18:46:24.108Z,45.43
2019-05-14T18:48:54.329Z,45.93
2019-05-14T18:51:24.309Z,46.10
2019-05-14T18:53:54.686Z,47.24
2019-05-14T19:00:10.597Z,48.74
2019-05-14T19:02:40.608Z,48.93
2019-05-14T19:05:11.199Z,49.49
2019-05-14T19:07:41.257Z,48.89
2019-05-14T19:10:12.805Z,48.83
2019-05-14T19:12:42.860Z,49.12
2019-05-14T19:15:13.132Z,49.75
2019-05-14T19:17:43.402Z,50.19
2019-05-14T19:20:13.594Z,49.51
2019-05-14T19:26:34.366Z,49.83
2019-05-14T19:29:00.175Z,49.38
2019-05-14T19:31:30.187Z,48.66
2019-05-14T19:34:00.120Z,48.51
2019-05-14T19:36:30.054Z,48.63
2019-05-14T19:38:59.986Z,47.42
2019-05-14T19:45:22.326Z,47.50
2019-05-14T19:47:52.969Z,47.53
2019-05-14T19:50:23.597Z,46.56
2019-05-14T19:52:53.520Z,46.89
2019-05-14T19:55:23.715Z,47.12
2019-05-14T19:57:53.731Z,47.63
2019-05-14T20:00:28.808Z,48.35
2019-05-14T20:02:58.875Z,48.71
2019-05-14T20:09:20.863Z,50.20
2019-05-14T20:11:51.644Z,51.37
2019-05-14T20:14:21.630Z,52.30
2019-05-14T20:16:51.578Z,53.31
2019-05-14T20:38:29.344Z,59.26
2019-05-14T20:41:00.568Z,61.57
2019-05-14T20:43:30.852Z,60.88
2019-05-14T20:46:00.968Z,60.91
2019-05-14T20:48:31.447Z,61.23
2019-05-14T20:51:01.404Z,61.91
2019-05-14T20:53:31.348Z,62.60
2019-05-14T20:56:02.060Z,63.05
2019-05-14T20:58:32.021Z,64.76
2019-05-14T21:01:02.286Z,63.75
2019-05-14T21:07:17.759Z,65.00
2019-05-14T21:09:49.225Z,65.54
2019-05-14T21:12:19.533Z,64.60
2019-05-14T21:14:49.425Z,64.56
2019-05-14T21:21:11.166Z,64.12
2019-05-14T21:23:41.130Z,64.13
2019-05-14T21:26:11.290Z,64.15
2019-05-14T21:28:41.225Z,65.05
2019-05-14T21:31:11.255Z,64.77
2019-05-14T21:56:41.370Z,67.52
2019-05-14T22:29:18.930Z,73.47
2019-05-14T22:31:48.868Z,74.40
2019-05-14T22:34:18.848Z,74.29
2019-05-14T22:40:39.674Z,79.92
2019-05-14T22:43:09.633Z,74.52
2019-05-14T22:45:40.420Z,74.31
2019-05-14T22:48:10.373Z,74.79
2019-05-14T22:50:41.474Z,75.10
2019-05-14T22:53:11.702Z,75.41
2019-05-14T22:55:42.359Z,74.87
2019-05-14T22:58:24.543Z,75.70
2019-05-14T23:00:47.769Z,75.96
2019-05-14T23:03:15.675Z,76.78
2019-05-14T23:05:48.386Z,77.02
2019-05-14T23:12:12.103Z,80.00
2019-05-14T23:39:15.485Z,85.31
2019-05-14T23:51:53.808Z,83.50
2019-05-14T23:54:23.783Z,84.15
2019-05-14T23:56:53.704Z,86.84
2019-05-14T23:59:24.499Z,88.48
